sensor_id;sensor_type;location;lat;lon;timestamp;pressure;altitude;pressure_sealevel;temperature;humidity
32320;BME280;19080;51.750;5.888;2023-07-20T00:02:21;101143.00;;;17.02;100.00
32320;BME280;19080;51.750;5.888;2023-07-20T00:04:48;101168.03;;;17.02;100.00
32320;BME280;19080;51.750;5.888;2023-07-20T00:07:15;101157.28;;;17.04;100.00
32320;BME280;19080;51.750;5.888;2023-07-20T00:09:41;101185.75;;;17.26;100.00
32320;BME280;19080;51.750;5.888;2023-07-20T00:12:08;101099.34;;;16.80;100.00
32320;BME280;19080;51.750;5.888;2023-07-20T00:14:35;101157.16;;;17.22;100.00
32320;BME280;19080;51.750;5.888;2023-07-20T00:17:02;101123.34;;;16.97;100.00
32320;BME280;19080;51.750;5.888;2023-07-20T00:19:29;101178.47;;;17.40;100.00
32320;BME280;19080;51.750;5.888;2023-07-20T00:21:56;101146.44;;;17.19;100.00
32320;BME280;19080;51.750;5.888;2023-07-20T00:24:23;101172.25;;;17.35;100.00
32320;BME280;19080;51.750;5.888;2023-07-20T00:26:59;101157.13;;;17.28;100.00
32320;BME280;19080;51.750;5.888;2023-07-20T00:29:27;101130.38;;;17.16;100.00
32320;BME280;19080;51.750;5.888;2023-07-20T00:31:54;101168.75;;;17.27;100.00
32320;BME280;19080;51.750;5.888;2023-07-20T00:34:24;101179.44;;;17.33;100.00
32320;BME280;19080;51.750;5.888;2023-07-20T00:36:53;101178.56;;;17.31;100.00
32320;BME280;19080;51.750;5.888;2023-07-20T00:39:19;101153.63;;;17.14;100.00
32320;BME280;19080;51.750;5.888;2023-07-20T00:41:47;101192.88;;;17.30;100.00
32320;BME280;19080;51.750;5.888;2023-07-20T00:44:13;101151.88;;;17.10;100.00
32320;BME280;19080;51.750;5.888;2023-07-20T00:46:40;101143.88;;;17.05;100.00
32320;BME280;19080;51.750;5.888;2023-07-20T00:49:08;101188.41;;;17.29;100.00
32320;BME280;19080;51.750;5.888;2023-07-20T00:51:37;101152.78;;;17.07;100.00
32320;BME280;19080;51.750;5.888;2023-07-20T00:54:04;101174.16;;;17.21;100.00
32320;BME280;19080;51.750;5.888;2023-07-20T00:56:31;101176.81;;;17.27;100.00
32320;BME280;19080;51.750;5.888;2023-07-20T00:58:58;101173.28;;;17.19;100.00
32320;BME280;19080;51.750;5.888;2023-07-20T01:01:27;101184.88;;;17.21;100.00
32320;BME280;19080;51.750;5.888;2023-07-20T01:03:53;101171.56;;;17.09;100.00
32320;BME280;19080;51.750;5.888;2023-07-20T01:06:29;101112.75;;;16.75;100.00
32320;BME280;19080;51.750;5.888;2023-07-20T01:09:05;101196.56;;;17.14;100.00
32320;BME280;19080;51.750;5.888;2023-07-20T01:11:59;101119.94;;;16.73;100.00
32320;BME280;19080;51.750;5.888;2023-07-20T01:14:31;101104.75;;;16.71;100.00
32320;BME280;19080;51.750;5.888;2023-07-20T01:16:59;101175.13;;;17.08;100.00
32320;BME280;19080;51.750;5.888;2023-07-20T01:19:27;101168.88;;;17.06;100.00
32320;BME280;19080;51.750;5.888;2023-07-20T01:22:05;101187.56;;;17.21;100.00
32320;BME280;19080;51.750;5.888;2023-07-20T01:30:36;101100.38;;;16.44;100.00
32320;BME280;19080;51.750;5.888;2023-07-20T01:33:09;101171.75;;;16.72;100.00
32320;BME280;19080;51.750;5.888;2023-07-20T01:35:41;101204.78;;;16.77;100.00
32320;BME280;19080;51.750;5.888;2023-07-20T01:38:12;101178.06;;;16.54;100.00
32320;BME280;19080;51.750;5.888;2023-07-20T01:40:40;101182.53;;;16.54;100.00
32320;BME280;19080;51.750;5.888;2023-07-20T01:43:07;101181.66;;;16.46;100.00
32320;BME280;19080;51.750;5.888;2023-07-20T01:45:35;101212.00;;;16.57;100.00
32320;BME280;19080;51.750;5.888;2023-07-20T01:48:01;101183.47;;;16.39;100.00
32320;BME280;19080;51.750;5.888;2023-07-20T01:50:28;101190.59;;;16.42;100.00
32320;BME280;19080;51.750;5.888;2023-07-20T01:52:55;101198.63;;;16.42;100.00
32320;BME280;19080;51.750;5.888;2023-07-20T01:55:24;101189.75;;;16.32;100.00
32320;BME280;19080;51.750;5.888;2023-07-20T01:57:51;101201.34;;;16.37;100.00
32320;BME280;19080;51.750;5.888;2023-07-20T02:00:18;101181.72;;;16.27;100.00
32320;BME280;19080;51.750;5.888;2023-07-20T02:02:47;101179.94;;;16.26;100.00
32320;BME280;19080;51.750;5.888;2023-07-20T02:05:14;101186.16;;;16.32;100.00
32320;BME280;19080;51.750;5.888;2023-07-20T02:07:41;101203.09;;;16.41;100.00
32320;BME280;19080;51.750;5.888;2023-07-20T02:10:08;101187.94;;;16.33;100.00
32320;BME280;19080;51.750;5.888;2023-07-20T02:12:35;101186.19;;;16.28;100.00
32320;BME280;19080;51.750;5.888;2023-07-20T02:15:02;101216.53;;;16.37;100.00
32320;BME280;19080;51.750;5.888;2023-07-20T02:17:29;101179.94;;;16.17;100.00
32320;BME280;19080;51.750;5.888;2023-07-20T02:19:56;101057.84;;;15.37;100.00
32320;BME280;19080;51.750;5.888;2023-07-20T02:22:26;101212.06;;;16.28;100.00
32320;BME280;19080;51.750;5.888;2023-07-20T02:24:53;101176.41;;;15.97;100.00
32320;BME280;19080;51.750;5.888;2023-07-20T02:27:20;101189.81;;;15.97;100.00
32320;BME280;19080;51.750;5.888;2023-07-20T02:29:47;101195.19;;;15.85;100.00
32320;BME280;19080;51.750;5.888;2023-07-20T02:32:13;101173.78;;;15.63;100.00
32320;BME280;19080;51.750;5.888;2023-07-20T02:34:40;101198.75;;;15.66;100.00
32320;BME280;19080;51.750;5.888;2023-07-20T02:37:07;101185.38;;;15.50;100.00
32320;BME280;19080;51.750;5.888;2023-07-20T02:39:37;101191.63;;;15.54;100.00
32320;BME280;19080;51.750;5.888;2023-07-20T02:42:04;101205.00;;;15.51;100.00
32320;BME280;19080;51.750;5.888;2023-07-20T02:44:31;101191.59;;;15.31;100.00
32320;BME280;19080;51.750;5.888;2023-07-20T02:46:58;101176.41;;;15.09;100.00
32320;BME280;19080;51.750;5.888;2023-07-20T02:49:24;101184.41;;;15.03;100.00
32320;BME280;19080;51.750;5.888;2023-07-20T02:51:51;101206.69;;;15.02;100.00
32320;BME280;19080;51.750;5.888;2023-07-20T02:54:18;101224.53;;;15.07;100.00
32320;BME280;19080;51.750;5.888;2023-07-20T02:56:44;101222.72;;;15.00;100.00
32320;BME280;19080;51.750;5.888;2023-07-20T02:59:11;101195.03;;;14.78;100.00
32320;BME280;19080;51.750;5.888;2023-07-20T03:01:38;101245.88;;;14.96;100.00
32320;BME280;19080;51.750;5.888;2023-07-20T03:04:05;101203.91;;;14.71;100.00
32320;BME280;19080;51.750;5.888;2023-07-20T03:06:31;101230.69;;;14.85;100.00
32320;BME280;19080;51.750;5.888;2023-07-20T03:08:58;101231.56;;;14.87;100.00
32320;BME280;19080;51.750;5.888;2023-07-20T03:11:25;101206.59;;;14.80;100.00
32320;BME280;19080;51.750;5.888;2023-07-20T03:13:52;101243.22;;;15.03;100.00
32320;BME280;19080;51.750;5.888;2023-07-20T03:16:19;101230.72;;;14.95;100.00
32320;BME280;19080;51.750;5.888;2023-07-20T03:18:47;101195.88;;;14.67;100.00
32320;BME280;19080;51.750;5.888;2023-07-20T03:21:14;101226.19;;;14.75;100.00
32320;BME280;19080;51.750;5.888;2023-07-20T03:23:41;101257.38;;;14.82;100.00
32320;BME280;19080;51.750;5.888;2023-07-20T03:26:09;101264.50;;;14.75;100.00
32320;BME280;19080;51.750;5.888;2023-07-20T03:28:36;101260.88;;;14.69;100.00
32320;BME280;19080;51.750;5.888;2023-07-20T03:31:05;101266.22;;;14.64;100.00
32320;BME280;19080;51.750;5.888;2023-07-20T03:33:36;101232.25;;;14.43;100.00
32320;BME280;19080;51.750;5.888;2023-07-20T03:36:02;101238.50;;;14.44;100.00
32320;BME280;19080;51.750;5.888;2023-07-20T03:38:30;101266.13;;;14.49;100.00
32320;BME280;19080;51.750;5.888;2023-07-20T03:40:58;101267.91;;;14.47;100.00
32320;BME280;19080;51.750;5.888;2023-07-20T03:43:27;101269.66;;;14.42;100.00
32320;BME280;19080;51.750;5.888;2023-07-20T03:45:54;101247.25;;;14.26;100.00
32320;BME280;19080;51.750;5.888;2023-07-20T03:48:22;101251.69;;;14.25;100.00
32320;BME280;19080;51.750;5.888;2023-07-20T03:50:50;101235.63;;;14.19;100.00
32320;BME280;19080;51.750;5.888;2023-07-20T03:53:18;101232.94;;;14.13;100.00
32320;BME280;19080;51.750;5.888;2023-07-20T03:55:46;101235.56;;;14.10;100.00
32320;BME280;19080;51.750;5.888;2023-07-20T03:58:13;101271.28;;;14.27;100.00
32320;BME280;19080;51.750;5.888;2023-07-20T04:00:46;101249.81;;;14.11;100.00
32320;BME280;19080;51.750;5.888;2023-07-20T04:03:14;101260.53;;;14.15;100.00
32320;BME280;19080;51.750;5.888;2023-07-20T04:05:41;101247.16;;;14.11;100.00
32320;BME280;19080;51.750;5.888;2023-07-20T04:08:08;101253.38;;;14.13;100.00
32320;BME280;19080;51.750;5.888;2023-07-20T04:10:35;101248.91;;;14.09;100.00
32320;BME280;19080;51.750;5.888;2023-07-20T04:13:01;101264.06;;;14.14;100.00
32320;BME280;19080;51.750;5.888;2023-07-20T04:15:28;101244.41;;;14.00;100.00
32320;BME280;19080;51.750;5.888;2023-07-20T04:17:56;101256.00;;;14.07;100.00
32320;BME280;19080;51.750;5.888;2023-07-20T04:20:24;101276.56;;;14.18;100.00
32320;BME280;19080;51.750;5.888;2023-07-20T04:22:50;101258.72;;;14.11;100.00
32320;BME280;19080;51.750;5.888;2023-07-20T04:25:18;101202.44;;;13.76;100.00
32320;BME280;19080;51.750;5.888;2023-07-20T04:27:45;101260.50;;;14.12;100.00
32320;BME280;19080;51.750;5.888;2023-07-20T04:30:12;101273.84;;;14.11;100.00
32320;BME280;19080;51.750;5.888;2023-07-20T04:32:39;101051.47;;;12.90;100.00
32320;BME280;19080;51.750;5.888;2023-07-20T04:35:46;101255.19;;;14.15;100.00
32320;BME280;19080;51.750;5.888;2023-07-20T04:38:17;101278.47;;;14.38;100.00
32320;BME280;19080;51.750;5.888;2023-07-20T04:40:50;101280.28;;;14.39;100.00
32320;BME280;19080;51.750;5.888;2023-07-20T04:43:17;101300.00;;;14.56;100.00
32320;BME280;19080;51.750;5.888;2023-07-20T04:45:45;101231.25;;;14.29;100.00
32320;BME280;19080;51.750;5.888;2023-07-20T04:48:14;101267.97;;;14.59;100.00
32320;BME280;19080;51.750;5.888;2023-07-20T04:50:48;101282.28;;;14.70;100.00
32320;BME280;19080;51.750;5.888;2023-07-20T04:53:15;101297.50;;;14.85;100.00
32320;BME280;19080;51.750;5.888;2023-07-20T04:55:48;101224.28;;;14.48;100.00
32320;BME280;19080;51.750;5.888;2023-07-20T04:58:19;101224.28;;;14.51;100.00
32320;BME280;19080;51.750;5.888;2023-07-20T05:00:46;101277.03;;;14.91;100.00
32320;BME280;19080;51.750;5.888;2023-07-20T05:03:13;101298.50;;;15.13;100.00
32320;BME280;19080;51.750;5.888;2023-07-20T05:05:41;101311.06;;;15.32;100.00
32320;BME280;19080;51.750;5.888;2023-07-20T05:08:08;101300.41;;;15.53;100.00
32320;BME280;19080;51.750;5.888;2023-07-20T05:10:34;101310.25;;;15.70;100.00
32320;BME280;19080;51.750;5.888;2023-07-20T05:13:01;101216.56;;;15.28;100.00
32320;BME280;19080;51.750;5.888;2023-07-20T05:15:28;101303.16;;;15.84;100.00
32320;BME280;19080;51.750;5.888;2023-07-20T05:17:56;101295.13;;;15.93;100.00
32320;BME280;19080;51.750;5.888;2023-07-20T05:20:23;101271.91;;;15.83;100.00
32320;BME280;19080;51.750;5.888;2023-07-20T05:22:50;101297.81;;;16.08;100.00
32320;BME280;19080;51.750;5.888;2023-07-20T05:25:16;101280.84;;;15.94;100.00
32320;BME280;19080;51.750;5.888;2023-07-20T05:27:45;101299.59;;;16.02;100.00
32320;BME280;19080;51.750;5.888;2023-07-20T05:30:12;101293.34;;;16.00;100.00
32320;BME280;19080;51.750;5.888;2023-07-20T05:32:39;101297.81;;;16.11;100.00
32320;BME280;19080;51.750;5.888;2023-07-20T05:35:06;101296.00;;;16.22;100.00
32320;BME280;19080;51.750;5.888;2023-07-20T05:37:33;101305.81;;;16.48;100.00
32320;BME280;19080;51.750;5.888;2023-07-20T05:40:00;101302.22;;;16.61;100.00
32320;BME280;19080;51.750;5.888;2023-07-20T05:42:27;101296.84;;;16.76;100.00
32320;BME280;19080;51.750;5.888;2023-07-20T05:44:53;101308.38;;;17.01;100.00
32320;BME280;19080;51.750;5.888;2023-07-20T05:47:21;101287.69;;;17.26;100.00
32320;BME280;19080;51.750;5.888;2023-07-20T05:49:48;101317.81;;;17.77;100.00
32320;BME280;19080;51.750;5.888;2023-07-20T05:52:15;101196.28;;;17.50;100.00
32320;BME280;19080;51.750;5.888;2023-07-20T05:54:41;101299.47;;;18.34;100.00
32320;BME280;19080;51.750;5.888;2023-07-20T05:57:08;101238.41;;;18.45;100.00
32320;BME280;19080;51.750;5.888;2023-07-20T05:59:35;101314.66;;;19.19;100.00
32320;BME280;19080;51.750;5.888;2023-07-20T06:02:02;101328.78;;;19.36;100.00
32320;BME280;19080;51.750;5.888;2023-07-20T06:04:28;101317.13;;;19.34;100.00
32320;BME280;19080;51.750;5.888;2023-07-20T06:06:56;101294.47;;;19.54;100.00
32320;BME280;19080;51.750;5.888;2023-07-20T06:09:22;101318.88;;;20.01;100.00
32320;BME280;19080;51.750;5.888;2023-07-20T06:11:49;101290.72;;;20.19;100.00
32320;BME280;19080;51.750;5.888;2023-07-20T06:14:16;101309.78;;;20.61;100.00
32320;BME280;19080;51.750;5.888;2023-07-20T06:16:46;101317.22;;;20.94;100.00
32320;BME280;19080;51.750;5.888;2023-07-20T06:19:14;101322.50;;;20.99;100.00
32320;BME280;19080;51.750;5.888;2023-07-20T06:21:41;101340.09;;;21.20;100.00
32320;BME280;19080;51.750;5.888;2023-07-20T06:24:08;101325.50;;;21.30;100.00
32320;BME280;19080;51.750;5.888;2023-07-20T06:26:35;101340.41;;;21.48;100.00
32320;BME280;19080;51.750;5.888;2023-07-20T06:29:05;101256.34;;;21.23;100.00
32320;BME280;19080;51.750;5.888;2023-07-20T06:31:38;101337.16;;;21.72;100.00
32320;BME280;19080;51.750;5.888;2023-07-20T06:34:05;101345.91;;;21.83;100.00
32320;BME280;19080;51.750;5.888;2023-07-20T06:36:32;101353.69;;;21.98;100.00
32320;BME280;19080;51.750;5.888;2023-07-20T06:38:58;101356.09;;;22.48;100.00
32320;BME280;19080;51.750;5.888;2023-07-20T06:41:28;101155.19;;;21.73;100.00
32320;BME280;19080;51.750;5.888;2023-07-20T06:43:58;101359.00;;;23.07;100.00
32320;BME280;19080;51.750;5.888;2023-07-20T06:46:25;101338.88;;;22.84;100.00
32320;BME280;19080;51.750;5.888;2023-07-20T06:48:53;101332.19;;;22.31;100.00
32320;BME280;19080;51.750;5.888;2023-07-20T06:51:23;101336.69;;;21.93;100.00
32320;BME280;19080;51.750;5.888;2023-07-20T06:53:50;101327.00;;;22.22;100.00
32320;BME280;19080;51.750;5.888;2023-07-20T06:56:17;101332.38;;;22.56;100.00
32320;BME280;19080;51.750;5.888;2023-07-20T06:58:46;101331.75;;;22.80;100.00
32320;BME280;19080;51.750;5.888;2023-07-20T07:01:13;101336.13;;;22.86;100.00
32320;BME280;19080;51.750;5.888;2023-07-20T07:03:41;101345.72;;;23.28;100.00
32320;BME280;19080;51.750;5.888;2023-07-20T07:06:07;101340.19;;;23.33;100.00
32320;BME280;19080;51.750;5.888;2023-07-20T07:08:34;101332.66;;;23.74;100.00
32320;BME280;19080;51.750;5.888;2023-07-20T07:11:01;101332.16;;;24.17;100.00
32320;BME280;19080;51.750;5.888;2023-07-20T07:13:28;101332.88;;;24.48;100.00
32320;BME280;19080;51.750;5.888;2023-07-20T07:15:55;101347.81;;;24.61;99.19
32320;BME280;19080;51.750;5.888;2023-07-20T07:18:22;101313.63;;;24.56;97.30
32320;BME280;19080;51.750;5.888;2023-07-20T07:20:53;101350.09;;;24.74;85.07
32320;BME280;19080;51.750;5.888;2023-07-20T07:23:20;101324.16;;;24.12;90.68
32320;BME280;19080;51.750;5.888;2023-07-20T07:25:47;101342.50;;;24.32;85.58
32320;BME280;19080;51.750;5.888;2023-07-20T07:28:14;101362.53;;;24.54;76.10
32320;BME280;19080;51.750;5.888;2023-07-20T07:30:41;101348.47;;;24.15;83.09
32320;BME280;19080;51.750;5.888;2023-07-20T07:33:07;101351.25;;;24.40;85.54
32320;BME280;19080;51.750;5.888;2023-07-20T07:35:35;101302.50;;;24.11;87.88
32320;BME280;19080;51.750;5.888;2023-07-20T07:38:02;101359.25;;;24.45;86.80
32320;BME280;19080;51.750;5.888;2023-07-20T07:40:49;101326.34;;;24.01;68.02
32320;BME280;19080;51.750;5.888;2023-07-20T07:43:16;101348.53;;;23.25;78.69
32320;BME280;19080;51.750;5.888;2023-07-20T07:45:42;101360.91;;;23.03;83.61
32320;BME280;19080;51.750;5.888;2023-07-20T07:48:09;101356.41;;;22.68;96.29
32320;BME280;19080;51.750;5.888;2023-07-20T07:50:39;101333.59;;;22.78;99.98
32320;BME280;19080;51.750;5.888;2023-07-20T07:53:07;101340.66;;;23.16;95.35
32320;BME280;19080;51.750;5.888;2023-07-20T07:55:35;101342.97;;;23.61;94.70
32320;BME280;19080;51.750;5.888;2023-07-20T07:58:02;101354.16;;;24.08;79.86
32320;BME280;19080;51.750;5.888;2023-07-20T08:00:30;101334.59;;;24.24;83.13
32320;BME280;19080;51.750;5.888;2023-07-20T08:02:57;101361.63;;;24.27;73.48
32320;BME280;19080;51.750;5.888;2023-07-20T08:05:24;101365.97;;;24.33;78.50
32320;BME280;19080;51.750;5.888;2023-07-20T08:07:52;101373.38;;;24.28;82.16
32320;BME280;19080;51.750;5.888;2023-07-20T08:10:19;101377.44;;;24.67;77.31
32320;BME280;19080;51.750;5.888;2023-07-20T08:12:46;101356.53;;;24.96;65.92
32320;BME280;19080;51.750;5.888;2023-07-20T08:15:12;101363.34;;;25.33;63.96
32320;BME280;19080;51.750;5.888;2023-07-20T08:17:41;101368.09;;;25.51;67.44
32320;BME280;19080;51.750;5.888;2023-07-20T08:20:12;101356.16;;;25.78;67.03
32320;BME280;19080;51.750;5.888;2023-07-20T08:22:39;101359.16;;;25.94;59.93
32320;BME280;19080;51.750;5.888;2023-07-20T08:25:06;101370.25;;;26.33;59.47
32320;BME280;19080;51.750;5.888;2023-07-20T08:27:33;101381.38;;;26.91;57.41
32320;BME280;19080;51.750;5.888;2023-07-20T08:30:00;101362.22;;;26.92;60.06
32320;BME280;19080;51.750;5.888;2023-07-20T08:32:28;101377.25;;;26.61;56.25
32320;BME280;19080;51.750;5.888;2023-07-20T08:34:55;101379.56;;;26.70;58.02
32320;BME280;19080;51.750;5.888;2023-07-20T08:37:22;101381.41;;;26.25;57.40
32320;BME280;19080;51.750;5.888;2023-07-20T08:39:49;101384.53;;;25.48;57.52
32320;BME280;19080;51.750;5.888;2023-07-20T08:42:15;101363.88;;;24.41;61.25
32320;BME280;19080;51.750;5.888;2023-07-20T08:44:44;101369.91;;;23.67;64.57
32320;BME280;19080;51.750;5.888;2023-07-20T08:47:12;101379.34;;;23.21;69.10
32320;BME280;19080;51.750;5.888;2023-07-20T08:49:41;101185.53;;;21.84;70.20
32320;BME280;19080;51.750;5.888;2023-07-20T08:52:09;101357.38;;;22.33;78.35
32320;BME280;19080;51.750;5.888;2023-07-20T08:54:36;101354.50;;;22.03;80.60
32320;BME280;19080;51.750;5.888;2023-07-20T08:57:04;101388.75;;;22.01;87.80
32320;BME280;19080;51.750;5.888;2023-07-20T08:59:32;101378.31;;;22.59;94.88
32320;BME280;19080;51.750;5.888;2023-07-20T09:02:00;101379.25;;;23.57;76.82
32320;BME280;19080;51.750;5.888;2023-07-20T09:04:27;101371.16;;;24.13;74.17
32320;BME280;19080;51.750;5.888;2023-07-20T09:06:55;101351.72;;;24.53;71.90
32320;BME280;19080;51.750;5.888;2023-07-20T09:09:23;101364.41;;;25.28;75.16
32320;BME280;19080;51.750;5.888;2023-07-20T09:11:50;101350.44;;;25.86;61.09
32320;BME280;19080;51.750;5.888;2023-07-20T09:14:17;101362.94;;;26.55;54.88
32320;BME280;19080;51.750;5.888;2023-07-20T09:19:15;101351.13;;;27.17;51.59
32320;BME280;19080;51.750;5.888;2023-07-20T09:21:50;101364.47;;;28.00;55.63
32320;BME280;19080;51.750;5.888;2023-07-20T09:24:18;101298.03;;;27.82;49.79
32320;BME280;19080;51.750;5.888;2023-07-20T09:26:47;101301.69;;;28.00;49.22
32320;BME280;19080;51.750;5.888;2023-07-20T09:29:18;101326.44;;;28.14;49.07
32320;BME280;19080;51.750;5.888;2023-07-20T09:32:02;101316.19;;;27.46;49.72
32320;BME280;19080;51.750;5.888;2023-07-20T09:34:30;101351.88;;;27.21;50.19
32320;BME280;19080;51.750;5.888;2023-07-20T09:37:02;101351.38;;;26.71;49.44
32320;BME280;19080;51.750;5.888;2023-07-20T09:39:30;101249.97;;;25.81;49.88
32320;BME280;19080;51.750;5.888;2023-07-20T09:42:00;101358.66;;;26.50;53.13
32320;BME280;19080;51.750;5.888;2023-07-20T09:44:31;101354.59;;;26.38;52.09
32320;BME280;19080;51.750;5.888;2023-07-20T09:47:03;101360.22;;;25.90;52.15
32320;BME280;19080;51.750;5.888;2023-07-20T09:49:30;101341.16;;;25.68;56.21
32320;BME280;19080;51.750;5.888;2023-07-20T09:52:17;101339.66;;;26.05;52.09
32320;BME280;19080;51.750;5.888;2023-07-20T09:55:08;101247.03;;;25.64;51.35
32320;BME280;19080;51.750;5.888;2023-07-20T09:57:36;101347.53;;;26.34;51.70
32320;BME280;19080;51.750;5.888;2023-07-20T10:00:05;101348.47;;;26.96;50.78
32320;BME280;19080;51.750;5.888;2023-07-20T10:02:46;101341.28;;;27.34;49.60
32320;BME280;19080;51.750;5.888;2023-07-20T10:05:14;101330.44;;;27.71;48.35
32320;BME280;19080;51.750;5.888;2023-07-20T10:07:47;101339.78;;;28.39;47.53
32320;BME280;19080;51.750;5.888;2023-07-20T10:10:15;101331.78;;;28.88;45.53
32320;BME280;19080;51.750;5.888;2023-07-20T10:12:48;101337.16;;;29.40;45.66
32320;BME280;19080;51.750;5.888;2023-07-20T10:15:28;101281.59;;;29.06;42.58
32320;BME280;19080;51.750;5.888;2023-07-20T10:20:49;101274.09;;;27.33;45.16
32320;BME280;19080;51.750;5.888;2023-07-20T10:23:21;101328.66;;;26.92;47.12
32320;BME280;19080;51.750;5.888;2023-07-20T10:25:49;101266.41;;;26.00;47.00
32320;BME280;19080;51.750;5.888;2023-07-20T10:28:16;101306.97;;;25.61;50.13
32320;BME280;19080;51.750;5.888;2023-07-20T10:30:43;101325.91;;;25.41;52.13
32320;BME280;19080;51.750;5.888;2023-07-20T10:33:11;101343.31;;;25.12;50.37
32320;BME280;19080;51.750;5.888;2023-07-20T10:35:54;101338.78;;;24.86;51.88
32320;BME280;19080;51.750;5.888;2023-07-20T10:39:02;101346.44;;;24.48;52.87
32320;BME280;19080;51.750;5.888;2023-07-20T10:41:29;101346.25;;;24.00;53.07
32320;BME280;19080;51.750;5.888;2023-07-20T10:44:07;101337.66;;;23.58;57.15
32320;BME280;19080;51.750;5.888;2023-07-20T10:49:10;101339.84;;;23.44;64.21
32320;BME280;19080;51.750;5.888;2023-07-20T10:51:45;101276.88;;;23.35;64.49
32320;BME280;19080;51.750;5.888;2023-07-20T10:56:43;101321.34;;;26.72;54.53
32320;BME280;19080;51.750;5.888;2023-07-20T11:01:59;101315.41;;;28.88;46.96
32320;BME280;19080;51.750;5.888;2023-07-20T11:04:44;101307.13;;;29.71;45.10
32320;BME280;19080;51.750;5.888;2023-07-20T11:10:15;101315.94;;;31.14;42.08
32320;BME280;19080;51.750;5.888;2023-07-20T11:18:25;101305.16;;;32.35;38.68
32320;BME280;19080;51.750;5.888;2023-07-20T11:20:53;101261.75;;;32.14;37.96
32320;BME280;19080;51.750;5.888;2023-07-20T11:23:20;101256.03;;;32.17;36.20
32320;BME280;19080;51.750;5.888;2023-07-20T11:25:47;101303.91;;;32.27;37.07
32320;BME280;19080;51.750;5.888;2023-07-20T11:28:14;101259.47;;;31.93;36.58
32320;BME280;19080;51.750;5.888;2023-07-20T11:30:40;101302.78;;;31.04;37.96
32320;BME280;19080;51.750;5.888;2023-07-20T11:33:11;101294.94;;;31.41;37.62
32320;BME280;19080;51.750;5.888;2023-07-20T11:35:44;101291.47;;;30.51;38.63
32320;BME280;19080;51.750;5.888;2023-07-20T11:38:13;101298.63;;;29.60;39.30
32320;BME280;19080;51.750;5.888;2023-07-20T11:40:46;101302.59;;;28.71;39.14
32320;BME280;19080;51.750;5.888;2023-07-20T11:43:13;101286.94;;;28.75;39.29
32320;BME280;19080;51.750;5.888;2023-07-20T11:45:45;101289.34;;;28.98;38.66
32320;BME280;19080;51.750;5.888;2023-07-20T11:48:15;101280.97;;;29.82;39.27
32320;BME280;19080;51.750;5.888;2023-07-20T11:50:43;101296.66;;;30.71;38.67
32320;BME280;19080;51.750;5.888;2023-07-20T11:53:09;101224.34;;;31.16;35.88
32320;BME280;19080;51.750;5.888;2023-07-20T11:55:36;101282.13;;;30.99;36.63
32320;BME280;19080;51.750;5.888;2023-07-20T11:58:05;101222.03;;;29.60;37.63
32320;BME280;19080;51.750;5.888;2023-07-20T12:00:33;101211.44;;;28.39;39.66
32320;BME280;19080;51.750;5.888;2023-07-20T12:03:01;101267.03;;;28.02;40.86
32320;BME280;19080;51.750;5.888;2023-07-20T12:05:28;101273.28;;;27.49;42.30
32320;BME280;19080;51.750;5.888;2023-07-20T12:07:54;101254.03;;;26.55;44.34
32320;BME280;19080;51.750;5.888;2023-07-20T12:10:28;101215.31;;;25.86;46.29
32320;BME280;19080;51.750;5.888;2023-07-20T12:13:01;101192.66;;;25.64;47.91
32320;BME280;19080;51.750;5.888;2023-07-20T12:15:29;101271.09;;;25.97;47.58
32320;BME280;19080;51.750;5.888;2023-07-20T12:18:00;101206.88;;;25.49;47.78
32320;BME280;19080;51.750;5.888;2023-07-20T12:23:02;101274.63;;;27.96;45.51
32320;BME280;19080;51.750;5.888;2023-07-20T12:25:39;101271.69;;;30.00;41.81
32320;BME280;19080;51.750;5.888;2023-07-20T12:28:08;101254.47;;;30.73;39.93
32320;BME280;19080;51.750;5.888;2023-07-20T12:30:39;101262.13;;;31.95;37.76
32320;BME280;19080;51.750;5.888;2023-07-20T12:33:06;101250.88;;;32.52;34.86
32320;BME280;19080;51.750;5.888;2023-07-20T12:35:33;101141.06;;;31.98;34.06
32320;BME280;19080;51.750;5.888;2023-07-20T12:38:01;101256.50;;;31.14;35.73
32320;BME280;19080;51.750;5.888;2023-07-20T12:40:27;101194.13;;;29.22;38.39
32320;BME280;19080;51.750;5.888;2023-07-20T12:42:54;101264.44;;;28.70;39.33
32320;BME280;19080;51.750;5.888;2023-07-20T12:45:21;101247.34;;;27.96;40.63
32320;BME280;19080;51.750;5.888;2023-07-20T12:47:48;101242.91;;;27.57;42.66
32320;BME280;19080;51.750;5.888;2023-07-20T12:50:15;101251.09;;;27.38;42.34
32320;BME280;19080;51.750;5.888;2023-07-20T12:52:42;101254.66;;;27.40;45.40
32320;BME280;19080;51.750;5.888;2023-07-20T12:55:09;101260.59;;;27.30;44.46
32320;BME280;19080;51.750;5.888;2023-07-20T12:57:37;101164.03;;;26.58;41.78
32320;BME280;19080;51.750;5.888;2023-07-20T13:00:05;101262.94;;;26.79;44.31
32320;BME280;19080;51.750;5.888;2023-07-20T13:02:34;101191.78;;;26.26;43.45
32320;BME280;19080;51.750;5.888;2023-07-20T13:05:02;101242.84;;;26.62;43.44
32320;BME280;19080;51.750;5.888;2023-07-20T13:07:31;101163.75;;;26.04;43.75
32320;BME280;19080;51.750;5.888;2023-07-20T13:10:02;101237.00;;;26.71;44.85
32320;BME280;19080;51.750;5.888;2023-07-20T13:12:31;101229.25;;;27.76;42.33
32320;BME280;19080;51.750;5.888;2023-07-20T13:14:58;101127.91;;;27.83;40.19
32320;BME280;19080;51.750;5.888;2023-07-20T13:17:29;101225.88;;;28.59;41.32
32320;BME280;19080;51.750;5.888;2023-07-20T13:19:55;101231.50;;;28.56;39.27
32320;BME280;19080;51.750;5.888;2023-07-20T13:22:22;101235.53;;;27.95;41.35
32320;BME280;19080;51.750;5.888;2023-07-20T13:24:49;101228.84;;;27.47;42.23